createdAt,value
2023-05-10T00:01:40.285Z,5.60
2023-05-10T00:03:43.213Z,6.67
2023-05-10T00:05:46.058Z,5.47
2023-05-10T00:07:48.839Z,2.50
2023-05-10T00:09:51.765Z,4.37
2023-05-10T00:11:54.539Z,5.27
2023-05-10T00:13:57.363Z,4.07
2023-05-10T00:16:00.265Z,4.47
2023-05-10T00:18:04.795Z,3.50
2023-05-10T00:20:08.655Z,5.70
2023-05-10T00:22:11.428Z,6.87
2023-05-10T00:24:14.209Z,4.17
2023-05-10T00:26:17.563Z,3.73
2023-05-10T00:28:20.336Z,5.50
2023-05-10T00:30:23.304Z,4.17
2023-05-10T00:32:26.168Z,5.03
2023-05-10T00:34:30.332Z,5.70
2023-05-10T00:36:33.152Z,5.53
2023-05-10T00:38:36.297Z,3.43
2023-05-10T00:40:39.133Z,4.57
2023-05-10T00:42:41.942Z,4.10
2023-05-10T00:44:44.705Z,4.03
2023-05-10T00:46:47.976Z,6.13
2023-05-10T00:48:51.121Z,4.57
2023-05-10T00:50:55.271Z,2.90
2023-05-10T00:52:58.444Z,6.10
2023-05-10T00:55:02.045Z,4.10
2023-05-10T00:57:05.011Z,3.63
2023-05-10T00:59:07.931Z,7.07
2023-05-10T01:01:11.904Z,4.17
2023-05-10T01:03:15.273Z,4.93
2023-05-10T01:05:18.228Z,5.13
2023-05-10T01:07:22.326Z,3.37
2023-05-10T01:09:27.310Z,4.60
2023-05-10T01:11:30.317Z,4.77
2023-05-10T01:13:35.621Z,4.30
2023-05-10T01:15:39.262Z,3.87
2023-05-10T01:17:44.671Z,5.27
2023-05-10T01:19:47.651Z,5.53
2023-05-10T01:21:59.432Z,4.20
2023-05-10T01:24:29.655Z,5.27
2023-05-10T01:27:06.508Z,4.63
2023-05-10T01:29:25.390Z,7.03
2023-05-10T01:31:40.645Z,4.43
2023-05-10T01:33:50.687Z,3.73
2023-05-10T01:35:57.701Z,6.67
2023-05-10T01:38:09.594Z,4.23
2023-05-10T01:40:20.707Z,7.40
2023-05-10T01:42:25.752Z,3.37
2023-05-10T01:44:37.059Z,5.00
2023-05-10T01:46:41.909Z,4.57
2023-05-10T01:48:50.418Z,5.77
2023-05-10T01:50:54.236Z,8.33
2023-05-10T01:53:00.019Z,6.13
2023-05-10T01:55:06.739Z,3.17
2023-05-10T01:57:13.178Z,7.57
2023-05-10T01:59:20.358Z,6.40
2023-05-10T02:01:23.920Z,3.40
2023-05-10T02:03:28.263Z,5.70
2023-05-10T02:05:34.847Z,2.67
2023-05-10T02:07:39.096Z,4.00
2023-05-10T02:09:43.259Z,4.37
2023-05-10T02:11:46.997Z,4.23
2023-05-10T02:13:51.238Z,4.17
2023-05-10T02:15:55.091Z,3.30
2023-05-10T02:17:59.120Z,5.27
2023-05-10T02:20:02.874Z,6.00
2023-05-10T02:22:09.261Z,4.00
2023-05-10T02:24:13.524Z,3.37
2023-05-10T02:26:18.861Z,5.60
2023-05-10T02:28:23.073Z,3.30
2023-05-10T02:30:26.653Z,4.73
2023-05-10T02:32:30.872Z,7.07
2023-05-10T02:34:34.351Z,7.13
2023-05-10T02:36:38.486Z,4.17
2023-05-10T02:38:42.935Z,3.63
2023-05-10T02:40:47.976Z,5.37
2023-05-10T02:42:54.191Z,5.73
2023-05-10T02:45:07.608Z,3.33
2023-05-10T02:47:10.515Z,6.03
2023-05-10T02:49:13.429Z,7.57
2023-05-10T02:51:20.025Z,3.33
2023-05-10T02:53:28.543Z,7.13
2023-05-10T02:55:37.676Z,6.93
2023-05-10T02:57:43.848Z,4.90
2023-05-10T02:59:47.095Z,5.30
2023-05-10T03:01:50.056Z,4.77
2023-05-10T03:03:53.064Z,4.97
2023-05-10T03:05:56.856Z,4.23
2023-05-10T03:07:59.728Z,4.37
2023-05-10T03:10:03.198Z,3.80
2023-05-10T03:12:17.512Z,4.57
2023-05-10T03:14:31.559Z,4.37
2023-05-10T03:16:44.065Z,5.23
2023-05-10T03:18:56.704Z,4.27
2023-05-10T03:21:03.759Z,10.33
2023-05-10T03:23:13.222Z,15.33
2023-05-10T03:25:18.513Z,5.53
2023-05-10T03:27:23.964Z,5.27
2023-05-10T03:29:28.485Z,4.13
2023-05-10T03:31:31.574Z,5.27
2023-05-10T03:33:34.431Z,5.60
2023-05-10T03:35:37.284Z,6.47
2023-05-10T03:37:40.105Z,7.63
2023-05-10T03:39:42.922Z,5.00
2023-05-10T03:41:46.002Z,4.57
2023-05-10T03:43:50.131Z,5.00
2023-05-10T03:45:52.945Z,6.70
2023-05-10T03:47:56.340Z,5.40
2023-05-10T03:49:59.392Z,5.13
2023-05-10T03:52:02.298Z,5.13
2023-05-10T03:54:05.393Z,5.00
2023-05-10T03:56:08.331Z,4.23
2023-05-10T03:58:13.219Z,6.17
2023-05-10T04:00:18.253Z,8.53
2023-05-10T04:02:21.236Z,6.03
2023-05-10T04:04:24.279Z,9.10
2023-05-10T04:06:27.114Z,6.73
2023-05-10T04:08:30.172Z,4.87
2023-05-10T04:10:33.088Z,6.67
2023-05-10T04:12:35.983Z,5.90
2023-05-10T04:14:38.807Z,6.30
2023-05-10T04:16:42.953Z,5.50
2023-05-10T04:18:46.348Z,4.50
2023-05-10T04:20:49.148Z,7.23
2023-05-10T04:22:52.056Z,4.03
2023-05-10T04:24:54.860Z,7.20
2023-05-10T04:26:57.937Z,4.27
2023-05-10T04:29:00.867Z,7.33
2023-05-10T04:31:04.815Z,4.40
2023-05-10T04:33:09.202Z,7.40
2023-05-10T04:35:12.152Z,4.47
2023-05-10T04:37:14.957Z,6.90
2023-05-10T04:39:18.028Z,5.77
2023-05-10T04:41:21.455Z,7.20
2023-05-10T04:43:24.281Z,4.03
2023-05-10T04:45:27.084Z,5.37
2023-05-10T04:47:29.870Z,4.63
2023-05-10T04:49:34.033Z,7.53
2023-05-10T04:51:36.882Z,5.07
2023-05-10T04:53:39.695Z,7.53
2023-05-10T04:55:42.577Z,5.20
2023-05-10T04:57:45.942Z,6.90
2023-05-10T04:59:50.289Z,8.17
2023-05-10T05:01:53.473Z,5.00
2023-05-10T05:03:56.495Z,9.97
2023-05-10T05:06:00.889Z,4.53
2023-05-10T05:08:03.805Z,10.17
2023-05-10T05:10:07.935Z,4.50
2023-05-10T05:12:14.813Z,4.80
2023-05-10T05:14:17.616Z,5.33
2023-05-10T05:16:20.485Z,5.07
2023-05-10T05:18:23.314Z,6.73
2023-05-10T05:20:26.130Z,7.43
2023-05-10T05:22:30.278Z,6.93
2023-05-10T05:24:38.692Z,6.37
2023-05-10T05:26:41.514Z,9.70
2023-05-10T05:28:44.289Z,9.43
2023-05-10T05:30:47.099Z,7.13
2023-05-10T05:32:49.963Z,7.47
2023-05-10T05:34:53.209Z,6.43
2023-05-10T05:36:56.410Z,8.70
2023-05-10T05:39:00.551Z,8.80
2023-05-10T05:41:04.046Z,8.37
2023-05-10T05:43:06.842Z,6.03
2023-05-10T05:45:14.128Z,7.23
2023-05-10T05:47:17.187Z,6.00
2023-05-10T05:49:20.059Z,6.30
2023-05-10T05:51:22.899Z,5.70
2023-05-10T05:53:25.965Z,6.70
2023-05-10T05:55:30.603Z,7.23
2023-05-10T05:57:33.418Z,10.10
2023-05-10T05:59:36.342Z,11.17
2023-05-10T06:01:39.304Z,7.13
2023-05-10T06:03:42.308Z,6.03
2023-05-10T06:05:45.340Z,6.70
2023-05-10T06:07:48.250Z,6.77
2023-05-10T06:09:51.184Z,6.70
2023-05-10T06:11:55.282Z,6.03
2023-05-10T06:13:58.468Z,4.80
2023-05-10T06:16:01.517Z,7.13
2023-05-10T06:18:04.362Z,5.53
2023-05-10T06:20:08.544Z,6.83
2023-05-10T06:22:11.748Z,5.50
2023-05-10T06:24:14.553Z,6.03
2023-05-10T06:26:17.350Z,5.07
2023-05-10T06:28:22.064Z,4.10
2023-05-10T06:30:28.469Z,8.07
2023-05-10T06:32:31.703Z,4.90
2023-05-10T06:34:34.586Z,3.90
2023-05-10T06:36:37.498Z,3.83
2023-05-10T06:38:40.563Z,4.40
2023-05-10T06:40:43.996Z,3.27
2023-05-10T06:42:47.283Z,3.70
2023-05-10T06:44:51.449Z,3.40
2023-05-10T06:46:56.196Z,3.67
2023-05-10T06:48:58.976Z,3.40
2023-05-10T06:51:01.808Z,4.97
2023-05-10T06:53:04.809Z,3.63
2023-05-10T06:55:09.479Z,3.30
2023-05-10T06:57:23.327Z,3.13
2023-05-10T06:59:33.169Z,2.40
2023-05-10T07:01:37.409Z,3.70
2023-05-10T07:03:40.272Z,2.90
2023-05-10T07:05:43.307Z,2.83
2023-05-10T07:07:46.195Z,5.30
2023-05-10T07:09:50.016Z,2.20
2023-05-10T07:11:52.812Z,1.93
2023-05-10T07:13:55.880Z,2.10
2023-05-10T07:15:59.245Z,3.10
2023-05-10T07:18:03.676Z,1.93
2023-05-10T07:20:07.994Z,3.90
2023-05-10T07:22:10.892Z,2.17
2023-05-10T07:24:14.007Z,4.90
2023-05-10T07:26:16.843Z,1.63
2023-05-10T07:28:20.024Z,3.53
2023-05-10T07:30:23.119Z,5.33
2023-05-10T07:32:26.294Z,2.50
2023-05-10T07:34:31.214Z,1.60
2023-05-10T07:36:34.079Z,1.30
2023-05-10T07:38:37.958Z,1.77
2023-05-10T07:40:42.052Z,1.30
2023-05-10T07:42:44.852Z,1.63
2023-05-10T07:44:48.149Z,1.20
2023-05-10T07:46:50.974Z,1.37
2023-05-10T07:48:53.807Z,1.67
2023-05-10T07:50:58.009Z,2.47
2023-05-10T07:53:01.398Z,1.20
2023-05-10T07:55:05.047Z,2.50
2023-05-10T07:57:07.887Z,1.53
2023-05-10T07:59:12.575Z,1.93
2023-05-10T08:01:15.650Z,2.10
2023-05-10T08:03:18.531Z,4.23
2023-05-10T08:05:21.409Z,0.90
2023-05-10T08:07:26.625Z,0.97
2023-05-10T08:09:29.544Z,0.70
2023-05-10T08:11:33.696Z,0.77
2023-05-10T08:13:37.791Z,1.00
2023-05-10T08:15:40.734Z,1.43
2023-05-10T08:17:44.047Z,0.97
2023-05-10T08:19:46.863Z,0.87
2023-05-10T08:21:49.910Z,0.50
2023-05-10T08:23:54.152Z,0.60
2023-05-10T08:25:56.949Z,0.50
2023-05-10T08:27:59.865Z,1.80
2023-05-10T08:30:02.733Z,0.47
2023-05-10T08:32:06.122Z,0.83
2023-05-10T08:34:09.068Z,1.43
2023-05-10T08:36:11.973Z,0.50
2023-05-10T08:38:14.845Z,0.47
2023-05-10T08:40:21.622Z,0.40
2023-05-10T08:42:27.292Z,0.40
2023-05-10T08:44:31.329Z,0.33
2023-05-10T08:46:37.691Z,0.60
2023-05-10T08:48:41.585Z,0.60
2023-05-10T08:50:44.847Z,0.50
2023-05-10T08:52:49.758Z,0.67
2023-05-10T08:54:52.642Z,0.33
2023-05-10T08:56:56.888Z,0.40
2023-05-10T08:58:59.926Z,0.80
2023-05-10T09:01:03.363Z,0.50
2023-05-10T09:03:07.294Z,1.27
2023-05-10T09:05:11.562Z,0.77
2023-05-10T09:07:14.615Z,0.40
2023-05-10T09:09:18.946Z,0.67
2023-05-10T09:11:22.983Z,0.83
2023-05-10T09:13:27.577Z,0.60
2023-05-10T09:15:30.391Z,0.83
2023-05-10T09:17:33.507Z,0.70
2023-05-10T09:19:36.550Z,1.93
2023-05-10T09:21:40.132Z,1.23
2023-05-10T09:23:47.381Z,0.70
2023-05-10T09:26:05.530Z,0.73
2023-05-10T09:28:09.799Z,0.70
2023-05-10T09:30:17.734Z,1.10
2023-05-10T09:32:20.572Z,1.33
2023-05-10T09:34:31.510Z,1.00
2023-05-10T09:36:34.642Z,0.67
2023-05-10T09:38:47.868Z,2.50
2023-05-10T09:40:56.333Z,12.60
2023-05-10T09:43:00.491Z,0.90
2023-05-10T09:45:05.291Z,29.13
2023-05-10T09:47:09.372Z,1.67
2023-05-10T09:49:16.870Z,4.17
2023-05-10T09:51:22.770Z,5.60
2023-05-10T09:53:25.626Z,2.60
2023-05-10T09:55:41.034Z,1.90
2023-05-10T09:57:44.010Z,2.10
2023-05-10T09:59:46.845Z,1.03
2023-05-10T10:01:52.316Z,0.87
2023-05-10T10:03:58.777Z,1.00
2023-05-10T10:06:18.804Z,1.80
2023-05-10T10:08:30.159Z,1.27
2023-05-10T10:10:34.428Z,4.30
2023-05-10T10:12:37.446Z,3.77
2023-05-10T10:14:40.394Z,3.07
2023-05-10T10:16:51.816Z,4.33
2023-05-10T10:19:08.659Z,0.90
2023-05-10T10:21:11.680Z,1.10
2023-05-10T10:23:16.659Z,1.67
2023-05-10T10:25:22.897Z,1.07
2023-05-10T10:27:30.581Z,1.40
2023-05-10T10:29:39.091Z,3.37
2023-05-10T10:31:48.066Z,1.37
2023-05-10T10:34:01.310Z,6.80
2023-05-10T10:36:06.802Z,1.90
2023-05-10T10:38:10.707Z,2.63
2023-05-10T10:40:27.728Z,2.17
2023-05-10T10:42:47.307Z,2.13
2023-05-10T10:44:53.970Z,2.17
2023-05-10T10:47:12.415Z,2.23
2023-05-10T10:49:18.240Z,1.37
2023-05-10T10:51:22.361Z,0.70
2023-05-10T10:53:27.913Z,2.43
2023-05-10T10:55:31.310Z,0.93
2023-05-10T10:57:35.756Z,0.60
2023-05-10T10:59:43.011Z,1.60
2023-05-10T11:01:46.037Z,1.47
2023-05-10T11:04:20.716Z,1.53
2023-05-10T11:06:33.630Z,1.43
2023-05-10T11:08:43.940Z,0.87
2023-05-10T11:11:05.525Z,0.93
2023-05-10T11:13:11.446Z,0.67
2023-05-10T11:15:14.583Z,1.23
2023-05-10T11:17:28.783Z,1.20
2023-05-10T11:19:35.355Z,1.67
2023-05-10T11:21:48.510Z,0.50
2023-05-10T11:23:52.678Z,2.53
2023-05-10T11:25:56.741Z,0.50
2023-05-10T11:27:59.575Z,0.60
2023-05-10T11:30:04.319Z,0.70
2023-05-10T11:32:09.104Z,0.63
2023-05-10T11:34:12.080Z,1.13
2023-05-10T11:36:16.233Z,1.27
2023-05-10T11:38:20.564Z,0.67
2023-05-10T11:40:25.492Z,0.60
2023-05-10T11:42:30.305Z,1.20
2023-05-10T11:44:33.454Z,1.90
2023-05-10T11:46:36.458Z,1.33
2023-05-10T11:48:41.307Z,1.10
2023-05-10T11:50:49.074Z,1.00
2023-05-10T11:52:53.911Z,3.80
2023-05-10T11:54:58.527Z,0.60
2023-05-10T11:57:01.998Z,1.33
2023-05-10T11:59:06.017Z,0.80
2023-05-10T12:01:11.722Z,0.70
2023-05-10T12:03:16.480Z,2.57
2023-05-10T12:05:19.732Z,1.37
2023-05-10T12:07:22.547Z,2.03
2023-05-10T12:09:39.615Z,1.33
2023-05-10T12:11:44.709Z,1.40
2023-05-10T12:13:48.367Z,1.70
2023-05-10T12:15:52.410Z,0.90
2023-05-10T12:17:55.885Z,1.40
2023-05-10T12:20:01.549Z,0.80
2023-05-10T12:22:06.897Z,1.67
2023-05-10T12:24:09.973Z,1.23
2023-05-10T12:26:13.099Z,1.63
2023-05-10T12:28:20.969Z,1.23
2023-05-10T12:30:24.445Z,0.83
2023-05-10T12:32:40.332Z,2.10
2023-05-10T12:34:43.220Z,0.60
2023-05-10T12:36:46.008Z,1.93
2023-05-10T12:38:49.672Z,1.23
2023-05-10T12:40:52.558Z,1.40
2023-05-10T12:42:55.417Z,2.37
2023-05-10T12:44:59.861Z,3.90
2023-05-10T12:47:02.680Z,1.03
2023-05-10T12:49:09.563Z,0.80
2023-05-10T12:51:14.062Z,3.73
2023-05-10T12:53:17.440Z,0.60
2023-05-10T12:55:20.262Z,0.43
2023-05-10T12:57:23.689Z,0.60
2023-05-10T12:59:26.529Z,0.90
2023-05-10T13:01:30.768Z,1.63
2023-05-10T13:03:33.772Z,1.00
2023-05-10T13:05:36.689Z,1.80
2023-05-10T13:07:39.476Z,1.77
2023-05-10T13:09:42.683Z,2.30
2023-05-10T13:11:46.332Z,1.77
2023-05-10T13:13:49.565Z,1.80
2023-05-10T13:15:52.382Z,1.33
2023-05-10T13:17:56.901Z,2.40
2023-05-10T13:20:00.130Z,0.90
2023-05-10T13:22:03.212Z,3.00
2023-05-10T13:24:06.712Z,1.23
2023-05-10T13:26:09.538Z,1.27
2023-05-10T13:28:12.304Z,1.13
2023-05-10T13:30:15.539Z,1.20
2023-05-10T13:32:18.526Z,1.30
2023-05-10T13:34:22.644Z,0.73
2023-05-10T13:36:25.532Z,0.60
2023-05-10T13:38:28.370Z,2.10
2023-05-10T13:40:31.403Z,2.87
2023-05-10T13:42:34.509Z,1.13
2023-05-10T13:44:37.444Z,1.02
2023-05-10T13:46:40.551Z,1.13
2023-05-10T13:48:43.372Z,0.63
2023-05-10T13:50:48.049Z,0.90
2023-05-10T13:52:50.832Z,1.83
2023-05-10T13:54:58.293Z,0.70
2023-05-10T13:57:01.155Z,0.80
2023-05-10T13:59:04.052Z,5.50
2023-05-10T14:01:06.969Z,1.35
2023-05-10T14:03:11.927Z,1.73
2023-05-10T14:05:15.419Z,1.02
2023-05-10T14:07:20.147Z,5.23
2023-05-10T14:09:22.937Z,1.80
2023-05-10T14:11:25.763Z,1.63
2023-05-10T14:13:28.552Z,0.93
2023-05-10T14:15:31.737Z,2.25
2023-05-10T14:17:34.560Z,1.20
2023-05-10T14:19:37.438Z,3.65
2023-05-10T14:21:40.684Z,3.20
2023-05-10T14:23:44.804Z,2.07
2023-05-10T14:25:47.600Z,1.77
2023-05-10T14:27:50.387Z,1.80
2023-05-10T14:29:54.250Z,1.80
2023-05-10T14:31:57.073Z,2.30
2023-05-10T14:34:00.254Z,1.40
2023-05-10T14:36:04.486Z,1.88
2023-05-10T14:38:07.367Z,2.13
2023-05-10T14:40:12.841Z,1.77
2023-05-10T14:42:15.630Z,2.17
2023-05-10T14:44:18.558Z,1.45
2023-05-10T14:46:21.852Z,1.17
2023-05-10T14:48:24.903Z,1.33
2023-05-10T14:50:36.475Z,1.17
2023-05-10T14:52:39.980Z,2.43
2023-05-10T14:54:42.751Z,1.20
2023-05-10T14:56:47.128Z,3.13
2023-05-10T14:58:52.291Z,1.17
2023-05-10T15:00:55.745Z,1.38
2023-05-10T15:02:59.529Z,1.90
2023-05-10T15:05:02.798Z,2.28
2023-05-10T15:07:06.793Z,3.47
2023-05-10T15:09:10.142Z,2.00
2023-05-10T15:11:13.020Z,1.33
2023-05-10T15:13:17.173Z,2.17
2023-05-10T15:15:19.994Z,3.07
2023-05-10T15:17:22.802Z,3.27
2023-05-10T15:19:25.673Z,2.40
2023-05-10T15:21:28.854Z,1.53
2023-05-10T15:23:31.864Z,1.87
2023-05-10T15:25:38.082Z,1.43
2023-05-10T15:27:40.977Z,2.07
2023-05-10T15:29:45.227Z,2.20
2023-05-10T15:31:48.825Z,1.23
2023-05-10T15:33:52.254Z,2.17
2023-05-10T15:35:55.179Z,1.93
2023-05-10T15:37:58.046Z,1.57
2023-05-10T15:40:04.851Z,3.93
2023-05-10T15:42:07.881Z,3.03
2023-05-10T15:44:10.693Z,2.83
2023-05-10T15:46:14.901Z,3.80
2023-05-10T15:48:17.996Z,2.33
2023-05-10T15:50:20.915Z,3.93
2023-05-10T15:52:24.330Z,3.37
2023-05-10T15:54:27.234Z,2.13
2023-05-10T15:56:30.135Z,2.33
2023-05-10T15:58:33.087Z,2.10
2023-05-10T16:00:36.001Z,2.30
2023-05-10T16:02:40.794Z,3.20
2023-05-10T16:04:44.642Z,4.03
2023-05-10T16:06:47.518Z,3.17
2023-05-10T16:08:50.374Z,4.80
2023-05-10T16:10:53.396Z,3.40
2023-05-10T16:12:56.404Z,6.50
2023-05-10T16:14:59.294Z,3.10
2023-05-10T16:17:04.664Z,4.13
2023-05-10T16:19:09.160Z,3.87
2023-05-10T16:21:12.013Z,3.63
2023-05-10T16:23:15.221Z,4.57
2023-05-10T16:25:18.676Z,4.47
2023-05-10T16:27:21.829Z,3.30
2023-05-10T16:29:24.731Z,3.60
2023-05-10T16:31:27.757Z,6.13
2023-05-10T16:33:30.846Z,4.23
2023-05-10T16:35:34.993Z,6.07
2023-05-10T16:37:37.833Z,4.43
2023-05-10T16:39:40.580Z,5.53
2023-05-10T16:41:43.603Z,6.97
2023-05-10T16:43:46.386Z,4.10
2023-05-10T16:45:49.233Z,5.80
2023-05-10T16:47:53.618Z,4.80
2023-05-10T16:49:56.808Z,3.37
2023-05-10T16:52:01.480Z,5.40
2023-05-10T16:54:04.381Z,7.07
2023-05-10T16:56:07.800Z,6.43
2023-05-10T16:58:10.909Z,6.90
2023-05-10T17:00:14.651Z,5.50
2023-05-10T17:02:17.570Z,4.70
2023-05-10T17:04:20.544Z,4.20
2023-05-10T17:06:23.435Z,12.63
2023-05-10T17:08:27.987Z,8.63
2023-05-10T17:10:30.777Z,4.23
2023-05-10T17:12:34.180Z,5.83
2023-05-10T17:14:38.136Z,6.37
2023-05-10T17:16:41.057Z,8.40
2023-05-10T17:18:45.798Z,9.60
2023-05-10T17:20:48.909Z,6.43
2023-05-10T17:22:52.245Z,3.43
2023-05-10T17:24:56.385Z,5.43
2023-05-10T17:27:00.533Z,4.93
2023-05-10T17:29:03.393Z,7.87
2023-05-10T17:31:06.237Z,13.63
2023-05-10T17:33:09.075Z,20.00
2023-05-10T17:35:11.925Z,7.77
2023-05-10T17:37:14.889Z,6.83
2023-05-10T17:39:17.675Z,4.90
2023-05-10T17:41:21.915Z,4.90
2023-05-10T17:43:26.037Z,5.07
2023-05-10T17:45:28.937Z,4.33
2023-05-10T17:47:31.909Z,5.57
2023-05-10T17:49:34.741Z,4.50
2023-05-10T17:51:37.624Z,5.17
2023-05-10T17:53:40.953Z,5.63
2023-05-10T17:55:43.955Z,10.53
2023-05-10T17:57:49.913Z,7.07
2023-05-10T17:59:54.043Z,6.30
2023-05-10T18:01:56.917Z,6.03
2023-05-10T18:03:59.763Z,5.77
2023-05-10T18:06:03.628Z,5.97
2023-05-10T18:08:08.143Z,4.60
2023-05-10T18:10:12.050Z,5.50
2023-05-10T18:12:15.041Z,6.97
2023-05-10T18:14:31.951Z,6.43
2023-05-10T18:16:39.332Z,6.40
2023-05-10T18:18:42.191Z,6.40
2023-05-10T18:20:46.274Z,5.80
2023-05-10T18:22:49.158Z,7.20
2023-05-10T18:24:52.381Z,6.63
2023-05-10T18:26:55.248Z,5.27
2023-05-10T18:28:59.445Z,8.10
2023-05-10T18:31:05.445Z,5.20
2023-05-10T18:33:09.943Z,7.83
2023-05-10T18:35:13.019Z,4.93
2023-05-10T18:37:15.900Z,5.80
2023-05-10T18:39:19.003Z,5.63
2023-05-10T18:41:21.798Z,5.10
2023-05-10T18:43:24.696Z,5.93
2023-05-10T18:45:27.448Z,5.80
2023-05-10T18:47:32.058Z,6.77
2023-05-10T18:49:34.945Z,6.53
2023-05-10T18:51:37.726Z,4.67
2023-05-10T18:53:40.652Z,4.97
2023-05-10T18:55:44.219Z,5.70
2023-05-10T18:57:47.884Z,4.87
2023-05-10T18:59:50.644Z,8.77
2023-05-10T19:01:54.928Z,10.37
2023-05-10T19:04:00.631Z,8.23
2023-05-10T19:06:03.480Z,4.60
2023-05-10T19:08:06.433Z,7.27
2023-05-10T19:10:10.177Z,5.77
2023-05-10T19:12:13.016Z,6.20
2023-05-10T19:14:15.848Z,5.67
2023-05-10T19:16:24.383Z,5.60
2023-05-10T19:18:27.298Z,5.93
2023-05-10T19:20:31.571Z,6.57
2023-05-10T19:22:45.524Z,6.50
2023-05-10T19:24:57.698Z,6.20
2023-05-10T19:27:00.474Z,5.90
2023-05-10T19:29:04.939Z,5.63
2023-05-10T19:31:08.460Z,5.87
2023-05-10T19:33:12.550Z,5.90
2023-05-10T19:35:15.949Z,7.77
2023-05-10T19:37:20.295Z,5.23
2023-05-10T19:39:23.403Z,6.63
2023-05-10T19:41:26.823Z,7.30
2023-05-10T19:43:33.879Z,7.57
2023-05-10T19:45:38.894Z,5.60
2023-05-10T19:47:41.968Z,5.60
2023-05-10T19:49:44.831Z,6.67
2023-05-10T19:51:47.824Z,5.80
2023-05-10T19:53:53.323Z,6.87
2023-05-10T19:55:56.455Z,5.63
2023-05-10T19:58:00.681Z,7.57
2023-05-10T20:00:05.010Z,7.37
2023-05-10T20:02:07.898Z,6.10
2023-05-10T20:04:11.124Z,8.13
2023-05-10T20:06:14.069Z,7.73
2023-05-10T20:08:16.936Z,6.13
2023-05-10T20:10:22.186Z,7.83
2023-05-10T20:12:24.988Z,7.33
2023-05-10T20:14:28.287Z,6.20
2023-05-10T20:16:31.508Z,9.77
2023-05-10T20:18:34.441Z,6.00
2023-05-10T20:20:37.407Z,7.90
2023-05-10T20:22:40.342Z,7.40
2023-05-10T20:24:43.477Z,9.47
2023-05-10T20:26:47.993Z,9.40
2023-05-10T20:28:51.258Z,6.77
2023-05-10T20:30:55.822Z,9.83
2023-05-10T20:33:00.445Z,6.23
2023-05-10T20:35:03.425Z,6.77
2023-05-10T20:37:06.727Z,8.83
2023-05-10T20:39:09.860Z,9.33
2023-05-10T20:41:12.702Z,10.67
2023-05-10T20:43:17.077Z,8.23
2023-05-10T20:45:19.842Z,9.77
2023-05-10T20:47:23.933Z,6.67
2023-05-10T20:49:28.072Z,8.67
2023-05-10T20:51:33.338Z,8.17
2023-05-10T20:53:36.299Z,7.37
2023-05-10T20:55:39.340Z,8.40
2023-05-10T20:57:42.210Z,7.73
2023-05-10T20:59:46.365Z,10.07
2023-05-10T21:01:49.341Z,8.80
2023-05-10T21:03:52.217Z,9.37
2023-05-10T21:05:54.982Z,10.70
2023-05-10T21:07:57.913Z,10.53
2023-05-10T21:10:00.746Z,11.77
2023-05-10T21:12:03.553Z,9.03
2023-05-10T21:14:06.568Z,7.97
2023-05-10T21:16:11.063Z,9.53
2023-05-10T21:18:14.218Z,9.17
2023-05-10T21:20:17.412Z,9.67
2023-05-10T21:22:20.521Z,8.43
2023-05-10T21:24:23.308Z,13.33
2023-05-10T21:26:26.150Z,9.60
2023-05-10T21:28:29.025Z,10.33
2023-05-10T21:30:31.905Z,9.90
2023-05-10T21:32:36.841Z,9.17
2023-05-10T21:34:39.669Z,11.57
2023-05-10T21:36:42.483Z,8.07
2023-05-10T21:38:45.310Z,8.10
2023-05-10T21:40:48.415Z,9.30
2023-05-10T21:42:51.616Z,11.27
2023-05-10T21:44:54.544Z,11.53
2023-05-10T21:53:42.778Z,9.30
2023-05-10T21:55:45.767Z,9.13
2023-05-10T21:57:48.587Z,9.53
2023-05-10T21:59:51.993Z,10.80
2023-05-10T22:01:55.492Z,12.23
2023-05-10T22:03:58.323Z,12.40
2023-05-10T22:06:01.167Z,9.53
2023-05-10T22:08:03.988Z,11.00
2023-05-10T22:10:09.497Z,10.63
2023-05-10T22:12:13.013Z,9.47
2023-05-10T22:14:15.847Z,12.50
2023-05-10T22:16:18.604Z,12.23
2023-05-10T22:18:21.513Z,9.20
2023-05-10T22:20:24.429Z,7.63
2023-05-10T22:22:27.197Z,8.97
2023-05-10T22:24:29.997Z,9.40
2023-05-10T22:26:34.230Z,9.63
2023-05-10T22:28:37.293Z,9.60
2023-05-10T22:30:40.093Z,9.80
2023-05-10T22:32:42.944Z,8.90
2023-05-10T22:34:45.797Z,9.70
2023-05-10T22:36:49.577Z,10.33
2023-05-10T22:38:52.340Z,11.17
2023-05-10T22:40:55.162Z,9.27
2023-05-10T22:42:59.347Z,12.43
2023-05-10T22:45:02.144Z,10.10
2023-05-10T22:47:06.564Z,8.17
2023-05-10T22:49:09.652Z,12.03
2023-05-10T22:51:12.421Z,9.90
2023-05-10T22:53:15.225Z,9.93
2023-05-10T22:55:18.517Z,10.97
2023-05-10T22:57:21.540Z,10.27
2023-05-10T22:59:25.852Z,14.33
2023-05-10T23:01:28.821Z,9.13
2023-05-10T23:03:31.776Z,10.70
2023-05-10T23:05:34.553Z,10.20
2023-05-10T23:07:37.859Z,9.27
2023-05-10T23:09:40.695Z,9.27
2023-05-10T23:11:43.536Z,10.50
2023-05-10T23:13:46.732Z,11.93
2023-05-10T23:15:50.889Z,9.40
2023-05-10T23:17:53.742Z,10.17
2023-05-10T23:19:56.822Z,9.87
2023-05-10T23:21:59.923Z,9.60
2023-05-10T23:24:02.761Z,13.67
2023-05-10T23:26:06.120Z,12.10
2023-05-10T23:28:08.870Z,10.70
2023-05-10T23:30:12.567Z,11.73
2023-05-10T23:32:16.796Z,10.10
2023-05-10T23:34:19.565Z,10.67
2023-05-10T23:36:22.348Z,9.70
2023-05-10T23:38:25.424Z,10.93
2023-05-10T23:40:28.320Z,13.10
2023-05-10T23:42:31.105Z,10.73
2023-05-10T23:44:34.066Z,11.63
2023-05-10T23:46:36.835Z,10.13
2023-05-10T23:48:41.368Z,11.37
2023-05-10T23:50:45.677Z,12.70
2023-05-10T23:52:48.464Z,10.57
2023-05-10T23:54:51.209Z,10.60
2023-05-10T23:56:54.012Z,10.00
2023-05-10T23:58:56.754Z,11.37
